Terminal Aerodrome Forecast
Issued by NWS

Home | Current Version | Previous Version | Text Only | Print | Product List | Glossary On
Versions: 1 2 3 4 5 6 7 8 9 10 11 12
807
FTUS42 TJSJ 141747
TAFKPK
TAF
TKPK 141747Z 1418/1518 09011KT P6SM -SHRA SCT020 SCT030 BKN040
     FM142200 09010KT P6SM SCT018 SCT030
     FM151300 08016KT P6SM FEW018 SCT025 SCT030=

USA.gov is the U.S. government's official web portal to all federal, state and local government web resources and services.